Terminal Aerodrome Forecast
Issued by NWS

Home | Current Version | Previous Version | Graphics & Text | Print | Product List | Glossary On
Versions: 1 2 3 4 5 6 7 8 9 10 11 12 13
000
FTUS43 KICT 021139
TAFCNU
TAF
KCNU 021139Z 0212/0312 21009KT P6SM SCT250
     FM021700 21013G18KT P6SM SCT050
     FM030000 18007KT P6SM FEW050 SCT250=

USA.gov is the U.S. government's official web portal to all federal, state and local government web resources and services.